Time;durP1;ratioP1;P1;durP2;ratioP2;P2;SDS_P1;SDS_P2;PMS_P1;PMS_P2;Temp;Humidity;BMP_temperature;BMP_pressure;BME280_temperature;BME280_humidity;BME280_pressure;Samples;Min_cycle;Max_cycle;Signal;HPM_P1;HPM_P2
2021/10/28 06:47:48;;;;;;;13.52;5.03;;;16.30;82.20;;;;;;5074975;28;20462;-78
2021/10/28 06:50:16;;;;;;;14.85;5.95;;;16.30;82.50;;;;;;5075225;28;20033;-77
2021/10/28 06:55:14;;;;;;;15.88;5.53;;;16.20;82.40;;;;;;5075768;28;20094;-76
2021/10/28 07:03:05;;;;;;;16.95;6.03;;;16.30;82.30;;;;;;5074855;28;20515;-76
2021/10/28 07:05:31;;;;;;;14.65;5.30;;;16.20;82.20;;;;;;5075228;28;20041;-76
2021/10/28 07:07:57;;;;;;;16.40;5.90;;;16.20;82.20;;;;;;5075390;28;20048;-75
2021/10/28 07:10:24;;;;;;;13.93;5.35;;;16.30;82.30;;;;;;5075591;28;20455;-78
2021/10/28 07:15:41;;;;;;;13.05;5.18;;;16.30;82.30;;;;;;5075047;28;20021;-75
2021/10/28 07:18:42;;;;;;;17.70;5.07;;;16.20;82.40;;;;;;5075578;28;20100;-74
2021/10/28 07:34:33;;;;;;;16.02;5.47;;;16.20;82.10;;;;;;5074686;28;20087;-77
2021/10/28 08:15:38;;;;;;;15.38;5.95;;;16.30;82.00;;;;;;5061164;28;20035;-76
2021/10/28 08:28:56;;;;;;;14.88;5.75;;;16.30;82.40;;;;;;5061007;28;20108;-76
2021/10/28 08:31:23;;;;;;;15.98;5.22;;;16.30;82.70;;;;;;5061079;28;20032;-76
2021/10/28 08:33:49;;;;;;;16.30;6.35;;;16.30;82.60;;;;;;5059822;28;20097;-76
2021/10/28 08:36:25;;;;;;;15.30;4.97;;;16.30;82.60;;;;;;5060777;28;20025;-76
2021/10/28 08:38:51;;;;;;;18.90;6.07;;;16.30;82.60;;;;;;5060909;28;20443;-76
2021/10/28 08:41:20;;;;;;;20.10;5.45;;;16.30;82.60;;;;;;5060612;28;20087;-76
2021/10/28 08:43:46;;;;;;;18.20;6.10;;;16.40;82.60;;;;;;5059581;28;20029;-76
2021/10/28 08:46:14;;;;;;;13.60;6.43;;;16.40;82.70;;;;;;5060444;28;20044;-76
2021/10/28 08:48:42;;;;;;;15.52;5.10;;;16.40;82.80;;;;;;5060863;28;20100;-76
2021/10/28 08:51:17;;;;;;;12.48;4.88;;;16.50;82.90;;;;;;5060448;28;20079;-76
2021/10/28 08:56:23;;;;;;;14.73;5.07;;;16.50;82.80;;;;;;5060225;28;20182;-76
2021/10/28 08:59:13;;;;;;;13.10;5.10;;;16.50;82.60;;;;;;5060317;28;20021;-76
2021/10/28 09:24:23;;;;;;;14.52;5.18;;;16.80;81.50;;;;;;5059897;28;20028;-77
2021/10/28 09:29:41;;;;;;;12.57;5.22;;;16.90;81.10;;;;;;5060013;28;20040;-76
2021/10/28 09:51:09;;;;;;;13.50;4.50;;;17.70;77.50;;;;;;5059020;28;20076;-76
2021/10/28 09:54:05;;;;;;;12.13;3.70;;;17.80;77.10;;;;;;5057884;28;20032;-76
2021/10/28 09:59:44;;;;;;;;;;;18.10;76.20;;;;;;5059618;28;20516;-76
2021/10/28 10:05:05;;;;;;;14.25;4.30;;;18.30;75.00;;;;;;5059153;28;20461;-76
2021/10/28 10:07:31;;;;;;;10.57;3.53;;;18.40;74.70;;;;;;5059023;28;20059;-76
2021/10/28 10:10:00;;;;;;;9.23;4.15;;;18.40;74.40;;;;;;5058897;28;20021;-76
2021/10/28 10:12:27;;;;;;;15.07;3.97;;;18.40;74.60;;;;;;5058565;28;20116;-76
2021/10/28 10:14:53;;;;;;;9.88;3.78;;;18.40;74.70;;;;;;5058443;28;20029;-76
2021/10/28 10:17:19;;;;;;;13.15;4.25;;;18.40;74.20;;;;;;5058301;28;20032;-76
2021/10/28 10:19:50;;;;;;;13.95;4.57;;;18.30;74.40;;;;;;5057387;28;20025;-76
2021/10/28 10:25:05;;;;;;;12.63;3.83;;;18.30;74.70;;;;;;5058721;28;20347;-76
2021/10/28 11:03:01;;;;;;;11.75;4.82;;;18.20;74.80;;;;;;5058182;28;20086;-76
2021/10/28 11:30:35;;;;;;;13.45;4.13;;;17.70;77.00;;;;;;5045895;28;20041;-77
2021/10/28 12:44:17;;;;;;;12.15;4.00;;;18.00;75.80;;;;;;5060267;28;20117;-76
2021/10/28 12:55:51;;;;;;;16.52;4.25;;;18.20;75.40;;;;;;5059937;28;20036;-77
2021/10/28 13:03:57;;;;;;;9.82;3.80;;;18.40;75.30;;;;;;5059716;28;20032;-76
2021/10/28 13:48:26;;;;;;;13.77;4.93;;;18.00;75.20;;;;;;5052807;28;20059;-76
2021/10/28 13:51:21;;;;;;;14.77;4.70;;;18.10;74.40;;;;;;5058988;28;20032;-76
2021/10/28 15:02:55;;;;;;;18.35;5.38;;;17.90;74.90;;;;;;5057861;28;20112;-76
2021/10/28 15:30:11;;;;;;;;;;;17.60;75.20;;;;;;5062413;28;20087;-76
2021/10/28 15:54:13;;;;;;;21.45;5.57;;;17.50;75.40;;;;;;5061210;28;20067;-76
2021/10/28 16:24:11;;;;;;;15.95;5.28;;;17.30;74.90;;;;;;5060592;28;20044;-76
2021/10/28 16:26:37;;;;;;;16.55;5.70;;;17.30;74.60;;;;;;5060743;28;20021;-76
2021/10/28 16:29:07;;;;;;;18.42;5.38;;;17.30;74.50;;;;;;5059473;28;20025;-76
2021/10/28 16:31:35;;;;;;;19.65;5.28;;;17.30;74.50;;;;;;5060526;28;20104;-76
2021/10/28 16:34:01;;;;;;;15.68;5.45;;;17.30;74.60;;;;;;5060716;28;20083;-76
2021/10/28 16:36:27;;;;;;;19.70;5.85;;;17.20;74.70;;;;;;5060531;28;20459;-76
2021/10/28 16:38:53;;;;;;;17.90;5.55;;;17.20;74.80;;;;;;5059290;28;20098;-76
2021/10/28 16:41:20;;;;;;;14.30;5.13;;;17.20;74.90;;;;;;5060394;28;20028;-76
2021/10/28 16:43:46;;;;;;;23.98;7.22;;;17.20;74.80;;;;;;5060436;28;20112;-76
2021/10/28 16:46:12;;;;;;;21.83;6.78;;;17.20;74.60;;;;;;5060172;28;20049;-76
2021/10/28 16:48:38;;;;;;;19.00;6.05;;;17.20;74.60;;;;;;5059170;28;20057;-76
2021/10/28 16:51:04;;;;;;;19.42;5.65;;;17.20;74.70;;;;;;5059018;28;20032;-77
2021/10/28 16:53:30;;;;;;;19.20;6.85;;;17.20;75.10;;;;;;5060144;28;20020;-76
2021/10/28 16:55:57;;;;;;;18.10;5.70;;;17.20;74.50;;;;;;5058937;28;20024;-76
2021/10/28 16:58:23;;;;;;;14.23;5.85;;;17.10;74.50;;;;;;5060260;28;20051;-76
2021/10/28 17:00:49;;;;;;;15.82;6.45;;;17.10;74.40;;;;;;5059023;28;20021;-76
2021/10/28 17:03:15;;;;;;;18.42;5.60;;;17.10;74.50;;;;;;5060380;28;20024;-76
2021/10/28 17:05:42;;;;;;;15.80;5.45;;;17.10;74.30;;;;;;5059834;28;20031;-76
2021/10/28 17:08:08;;;;;;;17.92;5.60;;;17.10;74.10;;;;;;5059859;28;20021;-76
2021/10/28 17:10:35;;;;;;;18.65;6.05;;;17.10;74.00;;;;;;5060085;28;20021;-76
2021/10/28 17:13:01;;;;;;;14.50;5.93;;;17.10;74.00;;;;;;5059778;28;20016;-76
2021/10/28 17:15:26;;;;;;;20.17;5.95;;;17.10;74.00;;;;;;5059915;28;20018;-76
2021/10/28 17:17:52;;;;;;;19.08;6.53;;;17.10;73.90;;;;;;5059694;28;20056;-76
2021/10/28 17:20:19;;;;;;;17.17;6.13;;;17.10;74.10;;;;;;5059576;28;20044;-76
2021/10/28 17:22:45;;;;;;;16.95;6.43;;;17.10;74.10;;;;;;5058573;28;20052;-76
2021/10/28 17:25:18;;;;;;;17.63;5.60;;;17.10;74.10;;;;;;5059561;28;20096;-76
2021/10/28 17:27:48;;;;;;;18.25;7.28;;;17.10;74.10;;;;;;5059204;28;20414;-76
2021/10/28 17:30:16;;;;;;;14.60;5.45;;;17.10;74.20;;;;;;5058882;28;20044;-76
2021/10/28 17:32:44;;;;;;;18.38;6.68;;;17.00;74.10;;;;;;5059364;28;20032;-76
2021/10/28 17:35:11;;;;;;;16.30;6.40;;;17.00;74.10;;;;;;5058509;28;20039;-76
2021/10/28 17:37:37;;;;;;;21.95;6.88;;;17.00;73.90;;;;;;5059862;28;20048;-74
2021/10/28 17:40:04;;;;;;;17.23;6.10;;;17.10;73.80;;;;;;5059218;28;20025;-76
2021/10/28 17:42:31;;;;;;;16.95;6.72;;;17.00;73.60;;;;;;5058249;28;20036;-76
2021/10/28 17:44:59;;;;;;;19.27;6.30;;;17.00;73.70;;;;;;5059460;28;20541;-76
2021/10/28 17:47:25;;;;;;;16.83;7.00;;;17.00;73.80;;;;;;5058782;28;20151;-76
2021/10/28 17:49:52;;;;;;;21.25;6.82;;;17.00;73.90;;;;;;5059290;28;20025;-76
2021/10/28 17:52:19;;;;;;;18.98;6.45;;;17.00;74.30;;;;;;5059483;28;20336;-76
2021/10/28 17:54:45;;;;;;;16.95;6.35;;;17.00;74.50;;;;;;5059272;28;20096;-76
2021/10/28 17:57:13;;;;;;;18.05;6.57;;;17.00;74.60;;;;;;5058983;28;20021;-76
2021/10/28 17:59:39;;;;;;;19.55;6.63;;;17.00;74.60;;;;;;5058997;28;20083;-76
2021/10/28 18:02:05;;;;;;;20.60;6.78;;;17.00;74.80;;;;;;5059152;28;20042;-76
2021/10/28 18:04:31;;;;;;;17.20;6.20;;;17.00;75.20;;;;;;5057746;28;20340;-76
2021/10/28 18:06:58;;;;;;;16.85;6.45;;;17.00;75.30;;;;;;5058960;28;20473;-76
2021/10/28 18:09:24;;;;;;;21.30;6.55;;;17.00;75.60;;;;;;5059172;28;20099;-76
2021/10/28 18:11:52;;;;;;;21.55;6.97;;;16.90;75.80;;;;;;5058909;28;20025;-76
2021/10/28 18:14:19;;;;;;;23.50;8.10;;;16.90;75.90;;;;;;5058731;28;20093;-77
2021/10/28 18:16:45;;;;;;;22.10;6.40;;;16.90;76.00;;;;;;5058679;28;20332;-76
2021/10/28 18:19:11;;;;;;;20.23;6.20;;;16.90;76.30;;;;;;5058867;28;20040;-76
2021/10/28 18:21:41;;;;;;;20.52;6.45;;;16.90;76.30;;;;;;5058622;28;20017;-76
2021/10/28 18:24:07;;;;;;;23.45;7.40;;;16.90;76.30;;;;;;5058805;28;20102;-76
2021/10/28 18:26:33;;;;;;;22.33;6.45;;;16.90;76.40;;;;;;5058511;28;20013;-76
2021/10/28 18:28:59;;;;;;;20.52;6.53;;;16.90;76.50;;;;;;5058511;28;20029;-76
2021/10/28 18:31:27;;;;;;;21.98;7.00;;;16.90;76.40;;;;;;5058676;28;20013;-76
2021/10/28 18:33:54;;;;;;;19.88;6.78;;;16.90;76.60;;;;;;5058352;28;20466;-76
2021/10/28 18:36:20;;;;;;;18.48;5.93;;;16.90;76.50;;;;;;5058512;28;20428;-76
2021/10/28 18:38:46;;;;;;;17.85;6.57;;;16.80;76.30;;;;;;5058743;28;20040;-76
2021/10/28 18:41:18;;;;;;;22.40;6.38;;;16.80;76.20;;;;;;5058498;28;20450;-76
2021/10/28 18:43:45;;;;;;;20.05;6.95;;;16.80;76.20;;;;;;5058658;28;20061;-76
2021/10/28 18:46:13;;;;;;;24.38;7.22;;;16.80;76.20;;;;;;5057963;28;20083;-76
2021/10/28 18:48:38;;;;;;;23.92;7.43;;;16.80;76.10;;;;;;5058581;28;20490;-76
2021/10/28 18:51:05;;;;;;;19.52;7.45;;;16.80;76.00;;;;;;5058465;28;20029;-76
2021/10/28 18:53:37;;;;;;;16.67;6.65;;;16.80;76.00;;;;;;5057301;28;20451;-76
2021/10/28 18:56:04;;;;;;;19.52;6.72;;;16.80;75.90;;;;;;5058637;28;20017;-76
2021/10/28 18:58:30;;;;;;;21.30;7.07;;;16.80;75.80;;;;;;5057123;28;20025;-76
2021/10/28 19:00:56;;;;;;;24.80;7.00;;;16.80;75.70;;;;;;5058156;28;20045;-76
2021/10/28 19:03:23;;;;;;;23.20;6.53;;;16.80;75.70;;;;;;5058318;28;20025;-76
2021/10/28 19:05:53;;;;;;;16.40;6.50;;;16.80;75.50;;;;;;5057999;28;20028;-76
2021/10/28 19:08:19;;;;;;;17.75;6.57;;;16.80;75.30;;;;;;5058704;28;20104;-76
2021/10/28 19:10:45;;;;;;;22.27;6.55;;;16.80;75.20;;;;;;5058064;28;20455;-76
2021/10/28 19:13:11;;;;;;;18.83;7.22;;;16.70;75.00;;;;;;5058053;28;20077;-76
2021/10/28 19:15:37;;;;;;;21.13;6.60;;;16.70;74.90;;;;;;5058144;28;20473;-76
2021/10/28 19:18:05;;;;;;;16.33;6.38;;;16.80;74.80;;;;;;5056809;28;20434;-76
2021/10/28 19:20:31;;;;;;;20.85;6.65;;;16.70;74.80;;;;;;5057854;28;20080;-76
2021/10/28 19:22:57;;;;;;;17.88;6.05;;;16.70;74.80;;;;;;5057845;28;20434;-76
2021/10/28 19:25:23;;;;;;;24.25;6.70;;;16.70;75.00;;;;;;5057944;28;20029;-76
2021/10/28 19:27:53;;;;;;;19.73;7.40;;;16.70;74.90;;;;;;5057890;28;20104;-76
2021/10/28 19:32:45;;;;;;;18.90;7.03;;;16.80;74.70;;;;;;5058049;28;20166;-76
2021/10/28 19:35:11;;;;;;;24.30;7.22;;;16.70;74.60;;;;;;5057919;28;20031;-76
2021/10/28 19:37:45;;;;;;;22.13;6.70;;;16.70;74.50;;;;;;5057722;28;20087;-76
2021/10/28 19:48:13;;;;;;;19.90;6.95;;;16.70;74.70;;;;;;5057993;28;20040;-76
2021/10/28 19:50:39;;;;;;;21.33;7.50;;;16.70;74.60;;;;;;5057602;28;20024;-76
2021/10/28 19:53:05;;;;;;;19.10;7.15;;;16.70;74.30;;;;;;5057592;28;20013;-76
2021/10/28 19:55:31;;;;;;;19.40;6.65;;;16.70;74.20;;;;;;5061235;28;20045;-76
2021/10/28 19:57:57;;;;;;;19.00;7.20;;;16.70;74.00;;;;;;5061382;28;20029;-76
2021/10/28 20:00:39;;;;;;;17.58;7.03;;;16.70;73.90;;;;;;5061336;28;20032;-76
2021/10/28 20:13:07;;;;;;;18.73;7.10;;;16.70;73.80;;;;;;5061147;28;20075;-76
2021/10/28 20:22:07;;;;;;;19.77;6.68;;;16.70;72.80;;;;;;5061081;28;20044;-77
2021/10/28 20:24:32;;;;;;;20.75;7.25;;;16.70;73.00;;;;;;5060877;28;20422;-76
2021/10/28 20:26:58;;;;;;;19.75;7.55;;;16.70;73.00;;;;;;5060607;28;20033;-76
2021/10/28 20:29:24;;;;;;;16.40;6.85;;;16.70;73.30;;;;;;5060922;28;20047;-76
2021/10/28 20:31:50;;;;;;;20.67;7.05;;;16.70;72.70;;;;;;5060855;28;20383;-76
2021/10/28 20:34:35;;;;;;;21.50;7.35;;;16.70;72.60;;;;;;5060523;28;20024;-76
2021/10/28 20:39:37;;;;;;;17.48;6.18;;;16.70;72.60;;;;;;5060676;28;20336;-76
2021/10/28 20:42:04;;;;;;;18.30;7.25;;;16.70;72.50;;;;;;5060745;28;20068;-77
2021/10/28 20:44:29;;;;;;;13.43;5.78;;;16.70;72.30;;;;;;5060563;28;20025;-76
2021/10/28 20:46:55;;;;;;;20.83;6.15;;;16.70;72.30;;;;;;5060069;28;20107;-76
2021/10/28 20:49:22;;;;;;;16.92;6.10;;;16.70;72.40;;;;;;5059166;28;20044;-76
2021/10/28 20:51:47;;;;;;;16.10;6.38;;;16.70;72.60;;;;;;5060250;28;20024;-76
2021/10/28 20:54:14;;;;;;;14.68;6.00;;;16.70;72.30;;;;;;5060217;28;20112;-76
2021/10/28 20:56:39;;;;;;;17.38;6.18;;;16.70;72.30;;;;;;5060195;28;20028;-76
2021/10/28 20:59:05;;;;;;;21.48;6.85;;;16.70;72.00;;;;;;5060130;28;20060;-75
2021/10/28 21:01:32;;;;;;;16.83;6.25;;;16.60;72.10;;;;;;5059589;28;20057;-76
2021/10/28 21:03:57;;;;;;;19.40;6.45;;;16.60;72.20;;;;;;5058905;28;20467;-76
2021/10/28 21:06:23;;;;;;;20.10;6.78;;;16.60;72.30;;;;;;5059874;28;20033;-76
2021/10/28 21:08:49;;;;;;;17.88;5.72;;;16.60;72.10;;;;;;5059982;28;20098;-76
2021/10/28 21:11:15;;;;;;;15.48;6.07;;;16.60;71.40;;;;;;5059779;28;20343;-76
2021/10/28 21:13:41;;;;;;;17.20;5.75;;;16.60;71.40;;;;;;5060159;28;20017;-76
2021/10/28 21:16:07;;;;;;;16.52;5.53;;;16.60;71.40;;;;;;5058734;28;20096;-76
2021/10/28 21:18:33;;;;;;;14.70;5.30;;;16.60;70.00;;;;;;5060081;28;20499;-75
2021/10/28 21:21:01;;;;;;;16.45;5.40;;;16.60;69.10;;;;;;5059868;28;20075;-76
2021/10/28 21:23:27;;;;;;;17.17;5.18;;;16.60;68.30;;;;;;5059710;28;20037;-76
2021/10/28 21:25:53;;;;;;;13.68;5.25;;;16.60;67.90;;;;;;5059408;28;20104;-76
2021/10/28 21:28:19;;;;;;;14.63;5.18;;;16.70;67.90;;;;;;5059498;28;20025;-76
2021/10/28 21:30:45;;;;;;;16.35;5.53;;;16.70;68.00;;;;;;5059681;28;20024;-76
2021/10/28 21:33:13;;;;;;;13.55;5.30;;;16.70;68.60;;;;;;5059778;28;20096;-76
2021/10/28 21:35:39;;;;;;;13.18;4.88;;;16.70;68.00;;;;;;5059666;28;20020;-76
2021/10/28 21:38:05;;;;;;;18.52;5.30;;;16.70;67.60;;;;;;5059361;28;20474;-76
2021/10/28 21:40:31;;;;;;;16.88;4.93;;;16.70;67.70;;;;;;5059490;28;20100;-76
2021/10/28 21:42:57;;;;;;;19.35;5.70;;;16.70;68.20;;;;;;5059265;28;20078;-76
2021/10/28 21:45:24;;;;;;;17.10;5.13;;;16.70;68.20;;;;;;5058862;28;20028;-76
2021/10/28 21:47:51;;;;;;;19.50;5.68;;;16.70;68.50;;;;;;5059453;28;20028;-75
2021/10/28 21:50:18;;;;;;;17.90;5.88;;;16.70;68.90;;;;;;5059208;28;20025;-76
2021/10/28 21:52:49;;;;;;;17.85;5.57;;;16.70;69.50;;;;;;5059046;28;20029;-75
2021/10/28 22:00:49;;;;;;;17.25;6.05;;;16.60;70.20;;;;;;5059125;28;20039;-76
2021/10/28 22:24:55;;;;;;;21.15;7.68;;;16.30;75.40;;;;;;5058560;28;20044;-76
2021/10/28 22:27:24;;;;;;;24.17;7.47;;;16.30;76.10;;;;;;5058351;28;20021;-76
2021/10/28 22:29:51;;;;;;;22.27;6.78;;;16.30;76.30;;;;;;5058611;28;20082;-76
2021/10/28 22:32:18;;;;;;;28.73;7.43;;;16.30;76.60;;;;;;5057338;28;20120;-76
2021/10/28 22:34:45;;;;;;;24.67;7.18;;;16.30;76.80;;;;;;5058380;28;20047;-76
2021/10/28 22:37:22;;;;;;;28.98;8.27;;;16.30;77.00;;;;;;5058528;28;20032;-76
2021/10/28 22:42:30;;;;;;;25.00;8.35;;;16.30;77.30;;;;;;5058250;28;20122;-76
2021/10/28 22:44:56;;;;;;;28.52;8.18;;;16.20;77.50;;;;;;5058335;28;20041;-76
2021/10/28 22:47:23;;;;;;;23.15;7.28;;;16.20;77.70;;;;;;5058532;28;20041;-76
2021/10/28 22:49:49;;;;;;;24.42;7.95;;;16.20;77.70;;;;;;5058213;28;20045;-76
2021/10/28 22:52:25;;;;;;;20.88;7.00;;;16.20;77.70;;;;;;5058629;28;20018;-75
2021/10/28 22:54:56;;;;;;;20.80;7.63;;;16.20;77.60;;;;;;5058175;28;20025;-76
2021/10/28 22:59:54;;;;;;;19.70;7.18;;;16.20;77.30;;;;;;5058006;28;20120;-76
2021/10/28 23:10:28;;;;;;;34.95;8.65;;;16.20;78.20;;;;;;5058451;28;20059;-76
2021/10/28 23:13:29;;;;;;;31.60;8.00;;;16.30;78.20;;;;;;5057937;28;20022;-76
2021/10/28 23:21:02;;;;;;;20.70;8.05;;;16.20;77.70;;;;;;5057985;28;20088;-76
2021/10/28 23:23:27;;;;;;;26.40;7.55;;;16.20;77.30;;;;;;5058196;28;20086;-76
2021/10/28 23:25:53;;;;;;;28.63;7.47;;;16.20;76.80;;;;;;5057993;28;20029;-76
2021/10/28 23:28:19;;;;;;;25.45;8.25;;;16.20;76.50;;;;;;5057930;28;20378;-77
2021/10/28 23:30:45;;;;;;;28.98;7.55;;;16.20;76.10;;;;;;5060644;28;20021;-76
2021/10/28 23:33:11;;;;;;;26.73;8.88;;;16.20;76.50;;;;;;5061673;28;20062;-76
2021/10/28 23:35:37;;;;;;;26.55;8.15;;;16.10;76.00;;;;;;5061928;28;20489;-76
2021/10/28 23:38:03;;;;;;;24.13;7.88;;;16.10;76.30;;;;;;5060670;28;20028;-76
2021/10/28 23:40:29;;;;;;;25.25;8.60;;;16.10;76.40;;;;;;5060438;28;20560;-76
2021/10/28 23:42:55;;;;;;;26.10;8.77;;;16.20;76.40;;;;;;5060466;28;20116;-76
2021/10/28 23:45:22;;;;;;;21.10;7.30;;;16.10;76.40;;;;;;5061666;28;20451;-76
2021/10/28 23:47:48;;;;;;;24.95;7.68;;;16.10;76.30;;;;;;5061409;28;20075;-77
2021/10/28 23:50:14;;;;;;;25.85;7.85;;;16.20;76.50;;;;;;5061638;28;20100;-76
2021/10/28 23:52:40;;;;;;;30.50;8.88;;;16.10;76.40;;;;;;5060348;28;20044;-76
2021/10/28 23:55:07;;;;;;;21.88;7.40;;;16.10;76.50;;;;;;5061343;28;20021;-76
2021/10/28 23:57:32;;;;;;;23.48;7.03;;;16.10;76.50;;;;;;5061370;28;20086;-76
2021/10/28 23:59:59;;;;;;;24.90;7.95;;;16.10;76.20;;;;;;5061234;28;20029;-76
